Time;durP1;ratioP1;P1;durP2;ratioP2;P2;SDS_P1;SDS_P2;PMS_P1;PMS_P2;Temp;Humidity;BMP_temperature;BMP_pressure;BME280_temperature;BME280_humidity;BME280_pressure;Samples;Min_cycle;Max_cycle;Signal;HPM_P1;HPM_P2
2021/04/15 00:01:54;;;;;;;21.02;15.52;;;11.00;81.00;;;;;;4993026;28;20050;-64
2021/04/15 00:04:21;;;;;;;22.50;16.42;;;11.00;81.10;;;;;;4993250;28;20034;-64
2021/04/15 00:06:47;;;;;;;25.38;16.52;;;11.00;81.10;;;;;;5028891;28;20026;-64
2021/04/15 00:09:16;;;;;;;22.33;15.68;;;11.00;81.40;;;;;;5036666;28;20498;-64
2021/04/15 00:11:43;;;;;;;23.05;16.65;;;11.10;81.40;;;;;;5036466;28;20075;-64
2021/04/15 00:14:11;;;;;;;25.25;17.17;;;11.20;81.40;;;;;;5036302;28;20534;-64
2021/04/15 00:16:38;;;;;;;24.05;17.35;;;11.20;81.50;;;;;;5036276;28;20096;-64
2021/04/15 00:19:04;;;;;;;24.23;17.70;;;11.20;81.50;;;;;;5036249;28;20100;-64
2021/04/15 00:21:30;;;;;;;26.02;18.60;;;11.30;81.60;;;;;;5036199;28;20087;-64
2021/04/15 00:23:56;;;;;;;24.25;17.83;;;11.30;81.60;;;;;;5036152;28;20026;-64
2021/04/15 00:26:24;;;;;;;23.40;17.45;;;11.30;81.70;;;;;;5036121;28;20022;-64
2021/04/15 00:28:51;;;;;;;27.05;18.73;;;11.30;81.60;;;;;;5036044;28;20088;-64
2021/04/15 00:31:17;;;;;;;27.40;19.27;;;11.30;81.60;;;;;;5028887;28;20018;-64
2021/04/15 00:33:43;;;;;;;30.90;20.15;;;11.30;81.70;;;;;;5015938;28;20041;-64
2021/04/15 00:36:09;;;;;;;25.25;17.77;;;11.40;81.70;;;;;;4998919;28;20467;-64
2021/04/15 00:38:35;;;;;;;25.08;16.98;;;11.40;81.60;;;;;;4996991;28;20467;-64
2021/04/15 00:41:01;;;;;;;29.75;20.58;;;11.30;81.10;;;;;;4996408;28;20038;-64
2021/04/15 00:43:30;;;;;;;28.30;19.85;;;11.30;81.10;;;;;;4996448;28;20379;-64
2021/04/15 00:45:58;;;;;;;30.27;20.38;;;11.20;81.20;;;;;;4996424;28;20383;-64
2021/04/15 00:48:39;;;;;;;26.85;18.70;;;11.20;81.30;;;;;;5009435;28;20018;-64
2021/04/15 00:51:24;;;;;;;30.48;20.13;;;11.10;81.40;;;;;;5015878;28;20100;-64
2021/04/15 00:53:55;;;;;;;27.35;19.13;;;11.10;81.60;;;;;;5015765;28;20152;-64
2021/04/15 00:56:22;;;;;;;27.30;19.48;;;11.00;81.60;;;;;;5015824;28;20504;-64
2021/04/15 00:58:48;;;;;;;28.75;19.38;;;11.00;81.70;;;;;;5015710;28;20034;-64
2021/04/15 01:01:15;;;;;;;29.08;19.67;;;10.90;81.80;;;;;;5015605;28;20030;-64
2021/04/15 01:03:41;;;;;;;30.67;21.17;;;10.90;82.10;;;;;;5015613;28;20053;-64
2021/04/15 01:06:07;;;;;;;31.05;21.48;;;10.90;82.30;;;;;;5033622;28;20059;-64
2021/04/15 01:08:33;;;;;;;28.85;21.10;;;10.90;82.50;;;;;;5035204;28;20135;-64
2021/04/15 01:11:11;;;;;;;32.03;21.40;;;10.90;82.40;;;;;;5035158;28;20119;-64
2021/04/15 01:13:52;;;;;;;32.92;21.33;;;10.90;82.30;;;;;;5035235;28;20026;-63
2021/04/15 01:16:46;;;;;;;31.05;20.35;;;10.90;82.40;;;;;;5034943;28;20032;-64
2021/04/15 01:19:29;;;;;;;31.63;21.77;;;10.90;82.40;;;;;;5034728;28;20392;-64
2021/04/15 01:22:27;;;;;;;32.25;22.20;;;10.90;82.40;;;;;;5035026;28;20100;-64
2021/04/15 01:25:08;;;;;;;32.22;22.52;;;10.90;82.50;;;;;;5035212;28;20036;-64
2021/04/15 01:27:42;;;;;;;31.15;22.38;;;10.90;82.60;;;;;;5035045;28;20037;-64
2021/04/15 01:30:36;;;;;;;33.38;23.05;;;10.90;82.90;;;;;;5034925;28;20056;-64
2021/04/15 01:33:28;;;;;;;36.10;23.27;;;10.90;82.70;;;;;;4995461;28;20014;-64
2021/04/15 01:36:21;;;;;;;30.98;20.95;;;10.90;82.90;;;;;;5001622;28;20026;-64
2021/04/15 01:38:58;;;;;;;32.85;23.23;;;10.90;82.60;;;;;;4995403;28;20062;-64
2021/04/15 01:41:33;;;;;;;33.63;22.02;;;10.80;82.70;;;;;;4990444;28;20061;-64
2021/04/15 01:44:07;;;;;;;32.80;23.13;;;10.90;82.90;;;;;;5014838;28;20029;-64
2021/04/15 01:46:36;;;;;;;33.63;23.25;;;10.80;82.80;;;;;;5014810;28;20022;-64
2021/04/15 01:49:07;;;;;;;31.73;21.90;;;10.80;82.80;;;;;;5014598;28;20025;-64
2021/04/15 01:51:39;;;;;;;32.67;21.93;;;10.80;82.60;;;;;;5013940;28;20049;-64
2021/04/15 01:54:33;;;;;;;35.60;22.60;;;10.80;82.80;;;;;;5014690;28;20108;-64
2021/04/15 01:57:28;;;;;;;34.25;22.17;;;10.80;82.80;;;;;;5014604;28;20048;-64
2021/04/15 02:00:12;;;;;;;29.63;20.70;;;10.80;82.90;;;;;;5014650;28;20030;-64
2021/04/15 02:02:44;;;;;;;31.30;20.58;;;10.80;83.00;;;;;;5014404;28;20050;-64
2021/04/15 02:05:19;;;;;;;32.90;20.90;;;10.80;82.90;;;;;;5003191;28;20034;-64
2021/04/15 02:07:52;;;;;;;33.20;21.98;;;10.80;82.90;;;;;;4995080;28;20069;-64
2021/04/15 02:10:20;;;;;;;27.70;19.40;;;10.80;83.00;;;;;;4994809;28;20113;-64
2021/04/15 02:12:49;;;;;;;30.90;20.02;;;10.80;83.10;;;;;;4994545;28;20061;-64
2021/04/15 02:15:22;;;;;;;24.88;18.63;;;10.70;83.10;;;;;;4994932;28;20030;-64
2021/04/15 02:17:49;;;;;;;28.52;20.20;;;10.70;82.90;;;;;;4994669;28;20035;-64
2021/04/15 02:20:21;;;;;;;29.20;19.15;;;10.70;83.20;;;;;;4994616;28;20035;-64
2021/04/15 02:23:02;;;;;;;27.17;19.33;;;10.60;83.30;;;;;;4994767;28;20022;-64
2021/04/15 02:25:33;;;;;;;28.40;17.25;;;10.60;83.20;;;;;;4994669;28;20092;-64
2021/04/15 02:28:04;;;;;;;29.30;18.85;;;10.60;83.40;;;;;;4994305;28;20026;-64
2021/04/15 02:30:34;;;;;;;28.73;19.40;;;10.60;83.50;;;;;;4995262;28;20065;-64
2021/04/15 02:33:27;;;;;;;26.15;18.25;;;10.60;83.40;;;;;;5013956;28;20027;-64
2021/04/15 02:35:58;;;;;;;28.42;19.48;;;10.70;83.40;;;;;;5029211;28;20538;-64
2021/04/15 02:38:43;;;;;;;26.33;19.10;;;10.70;83.30;;;;;;5033216;28;20393;-64
2021/04/15 02:41:11;;;;;;;26.98;18.55;;;10.70;82.90;;;;;;5033881;28;20029;-64
2021/04/15 02:43:50;;;;;;;28.90;18.92;;;10.70;82.90;;;;;;5033847;28;20415;-64
2021/04/15 02:46:26;;;;;;;28.00;18.38;;;10.70;82.80;;;;;;5033567;28;20028;-64
2021/04/15 02:48:54;;;;;;;24.90;17.80;;;10.70;82.60;;;;;;5019831;28;20033;-64
2021/04/15 02:51:43;;;;;;;25.08;17.40;;;10.70;82.70;;;;;;5013703;28;20110;-64
2021/04/15 02:54:32;;;;;;;27.00;18.33;;;10.70;82.40;;;;;;5014226;28;20041;-64
2021/04/15 02:57:02;;;;;;;25.63;18.25;;;10.70;82.50;;;;;;5013570;28;20065;-64
2021/04/15 02:59:35;;;;;;;29.95;20.00;;;10.60;82.60;;;;;;5013611;28;20028;-64
2021/04/15 03:02:06;;;;;;;27.58;18.10;;;10.60;82.70;;;;;;5013670;28;20045;-64
2021/04/15 03:04:34;;;;;;;28.40;18.73;;;10.50;82.90;;;;;;5012953;28;20072;-64
2021/04/15 03:07:01;;;;;;;30.50;18.88;;;10.50;82.90;;;;;;5013314;28;20096;-64
2021/04/15 03:09:30;;;;;;;25.27;18.80;;;10.50;83.10;;;;;;5013508;28;20033;-64
2021/04/15 03:12:27;;;;;;;26.92;18.58;;;10.50;83.20;;;;;;5013522;28;20120;-64
2021/04/15 03:15:08;;;;;;;28.63;19.40;;;10.50;83.40;;;;;;5010250;28;20509;-64
2021/04/15 03:17:38;;;;;;;28.47;19.23;;;10.50;83.60;;;;;;5013443;28;20443;-64
2021/04/15 03:20:11;;;;;;;29.10;19.10;;;10.50;83.60;;;;;;5013305;28;20109;-64
2021/04/15 03:22:51;;;;;;;28.13;19.80;;;10.50;83.50;;;;;;5013347;28;20026;-64
2021/04/15 03:25:17;;;;;;;25.23;17.95;;;10.50;83.60;;;;;;5013420;28;20048;-64
2021/04/15 03:28:25;;;;;;;27.35;17.90;;;10.50;83.50;;;;;;5013195;28;20048;-64
2021/04/15 03:30:56;;;;;;;30.13;19.02;;;10.50;83.40;;;;;;5004889;28;20512;-64
2021/04/15 03:33:36;;;;;;;28.30;19.15;;;10.40;83.70;;;;;;5013262;28;20058;-64
2021/04/15 03:36:15;;;;;;;27.43;18.67;;;10.40;83.90;;;;;;4993627;28;20030;-64
2021/04/15 03:38:50;;;;;;;33.13;21.88;;;10.40;84.20;;;;;;4993573;28;20664;-64
2021/04/15 03:41:21;;;;;;;27.63;18.10;;;10.40;84.40;;;;;;4999820;28;20029;-64
2021/04/15 03:44:04;;;;;;;29.10;19.20;;;10.40;84.60;;;;;;5002074;28;20034;-64
2021/04/15 03:46:42;;;;;;;31.60;19.92;;;10.40;84.70;;;;;;4997466;28;20040;-64
2021/04/15 03:49:15;;;;;;;27.13;19.10;;;10.40;84.80;;;;;;4997288;28;20057;-64
2021/04/15 03:51:51;;;;;;;27.50;17.70;;;10.50;84.60;;;;;;4997618;28;20041;-64
2021/04/15 03:54:21;;;;;;;25.50;18.27;;;10.50;84.50;;;;;;4997600;28;20084;-64
2021/04/15 03:56:54;;;;;;;22.85;16.92;;;10.50;84.60;;;;;;4997539;28;20056;-64
2021/04/15 03:59:38;;;;;;;22.65;15.27;;;10.50;84.60;;;;;;4997307;28;20076;-64
2021/04/15 04:02:11;;;;;;;25.88;16.95;;;10.50;84.40;;;;;;4997241;28;20502;-64
2021/04/15 04:08:46;;;;;;;20.83;14.93;;;10.40;84.40;;;;;;4997622;28;20057;-64
2021/04/15 04:11:15;;;;;;;22.33;15.82;;;10.40;84.30;;;;;;5005276;28;20038;-64
2021/04/15 04:13:46;;;;;;;25.67;16.85;;;10.40;84.60;;;;;;5016544;28;20026;-64
2021/04/15 04:16:18;;;;;;;24.23;16.27;;;10.40;84.60;;;;;;5016637;28;20029;-64
2021/04/15 04:19:02;;;;;;;27.13;17.58;;;10.40;84.40;;;;;;5016814;28;20034;-64
2021/04/15 04:21:42;;;;;;;24.35;16.75;;;10.40;84.30;;;;;;5016481;28;20053;-64
2021/04/15 04:24:27;;;;;;;23.88;16.30;;;10.40;84.60;;;;;;5016596;28;20086;-64
2021/04/15 04:26:58;;;;;;;23.35;16.08;;;10.40;84.60;;;;;;5016405;28;20040;-64
2021/04/15 04:29:30;;;;;;;24.55;17.17;;;10.40;84.40;;;;;;5016573;28;20033;-64
2021/04/15 04:31:59;;;;;;;22.92;16.15;;;10.50;84.70;;;;;;5016244;28;20382;-64
2021/04/15 04:34:25;;;;;;;25.67;18.15;;;10.50;84.70;;;;;;5024470;28;20492;-64
2021/04/15 04:36:53;;;;;;;20.52;15.65;;;10.60;84.80;;;;;;5036234;28;20065;-64
2021/04/15 04:39:21;;;;;;;23.98;16.33;;;10.60;84.50;;;;;;5035894;28;20026;-64
2021/04/15 04:41:51;;;;;;;20.42;15.32;;;10.60;84.40;;;;;;5035868;28;20366;-64
2021/04/15 04:44:26;;;;;;;23.27;16.77;;;10.60;84.10;;;;;;5035846;28;20026;-64
2021/04/15 04:46:59;;;;;;;25.58;17.98;;;10.70;84.20;;;;;;5035775;28;20420;-64
2021/04/15 04:49:34;;;;;;;23.17;17.00;;;10.70;84.20;;;;;;5023213;28;20373;-64
2021/04/15 04:52:08;;;;;;;22.45;15.55;;;10.70;84.20;;;;;;5015657;28;20018;-64
2021/04/15 04:54:37;;;;;;;25.08;17.38;;;10.80;84.10;;;;;;5015893;28;20029;-64
2021/04/15 04:57:09;;;;;;;22.52;15.70;;;10.80;84.00;;;;;;5015767;28;20104;-64
2021/04/15 04:59:38;;;;;;;22.45;16.65;;;10.80;83.90;;;;;;5015794;28;20144;-64
2021/04/15 05:02:04;;;;;;;21.05;15.10;;;10.80;83.90;;;;;;5015571;28;20046;-64
2021/04/15 05:04:33;;;;;;;21.27;15.80;;;10.80;83.80;;;;;;5014738;28;20030;-64
2021/04/15 05:07:23;;;;;;;22.48;15.43;;;10.90;83.90;;;;;;5015358;28;20036;-64
2021/04/15 05:09:50;;;;;;;22.90;14.77;;;10.90;83.60;;;;;;5008238;28;20041;-64
2021/04/15 05:12:22;;;;;;;22.05;16.13;;;10.90;83.80;;;;;;5015547;28;20033;-64
2021/04/15 05:14:52;;;;;;;22.20;15.82;;;10.90;83.80;;;;;;5015457;28;20026;-64
2021/04/15 05:17:32;;;;;;;20.05;14.30;;;10.80;83.60;;;;;;5015453;28;20029;-64
2021/04/15 05:20:05;;;;;;;22.75;15.48;;;10.90;83.80;;;;;;5015703;28;20500;-64
2021/04/15 05:22:36;;;;;;;26.23;16.85;;;10.90;83.80;;;;;;5015291;28;20385;-64
2021/04/15 05:25:09;;;;;;;20.35;15.82;;;10.90;84.70;;;;;;5015948;28;20046;-64
2021/04/15 05:27:38;;;;;;;25.95;17.13;;;11.00;84.10;;;;;;5015875;28;20026;-64
2021/04/15 05:30:20;;;;;;;23.00;16.27;;;11.10;84.10;;;;;;5016165;28;20357;-64
2021/04/15 05:32:47;;;;;;;22.08;15.88;;;11.20;84.10;;;;;;5015698;28;20097;-64
2021/04/15 05:35:23;;;;;;;23.30;16.98;;;11.30;84.00;;;;;;5032641;28;20039;-64
2021/04/15 05:37:52;;;;;;;29.42;19.00;;;11.40;83.50;;;;;;5035814;28;20033;-64
2021/04/15 05:40:18;;;;;;;22.20;17.02;;;11.40;83.10;;;;;;5035565;28;20065;-64
2021/04/15 05:43:08;;;;;;;24.58;17.70;;;11.40;82.40;;;;;;5017636;28;20382;-64
2021/04/15 05:45:36;;;;;;;23.58;17.35;;;11.40;82.30;;;;;;4995889;28;20023;-64
2021/04/15 05:48:06;;;;;;;22.38;16.70;;;11.30;82.40;;;;;;4995514;28;20030;-63
2021/04/15 05:50:48;;;;;;;20.67;14.65;;;11.30;82.60;;;;;;5008081;28;20101;-64
2021/04/15 05:53:32;;;;;;;20.90;15.68;;;11.30;82.60;;;;;;5005348;28;20023;-64
2021/04/15 05:56:30;;;;;;;23.45;16.52;;;11.30;82.80;;;;;;4999110;28;20018;-63
2021/04/15 05:59:12;;;;;;;24.17;17.63;;;11.20;82.90;;;;;;5009702;28;20046;-64
2021/04/15 06:01:51;;;;;;;23.23;18.02;;;11.20;83.10;;;;;;5008705;28;20080;-64
2021/04/15 06:04:43;;;;;;;25.40;17.27;;;11.20;82.80;;;;;;5010065;28;20030;-63
2021/04/15 06:07:16;;;;;;;23.27;15.77;;;11.10;83.00;;;;;;5005699;28;20037;-63
2021/04/15 06:09:43;;;;;;;22.20;16.55;;;11.10;83.10;;;;;;5000753;28;20097;-63
2021/04/15 06:12:33;;;;;;;22.42;17.00;;;11.10;83.00;;;;;;4994055;28;20029;-63
2021/04/15 06:15:11;;;;;;;23.83;16.60;;;11.00;83.30;;;;;;5005130;28;20049;-64
2021/04/15 06:17:43;;;;;;;21.65;15.45;;;10.90;83.50;;;;;;5001309;28;20121;-64
2021/04/15 06:20:39;;;;;;;23.52;16.38;;;10.90;83.60;;;;;;5000979;28;20022;-64
2021/04/15 06:23:16;;;;;;;20.45;15.30;;;10.80;83.30;;;;;;4990946;28;20069;-64
2021/04/15 06:25:48;;;;;;;26.50;16.92;;;10.80;83.60;;;;;;4997114;28;20549;-64
2021/04/15 06:28:22;;;;;;;;;;;10.80;83.50;;;;;;5004868;28;20030;-64
2021/04/15 06:31:10;;;;;;;18.55;14.02;;;10.70;83.70;;;;;;5000388;28;19921;-65
2021/04/15 06:33:37;;;;;;;21.75;15.70;;;10.70;83.60;;;;;;5002284;28;20054;-65
2021/04/15 06:36:08;;;;;;;20.13;14.90;;;10.70;83.80;;;;;;5003801;28;20052;-64
2021/04/15 06:38:43;;;;;;;23.15;16.95;;;10.70;84.00;;;;;;5000488;28;20034;-64
2021/04/15 06:41:32;;;;;;;25.63;16.10;;;10.70;84.30;;;;;;5003939;28;20057;-64
2021/04/15 06:44:19;;;;;;;22.33;16.13;;;10.80;84.20;;;;;;4997466;28;20067;-61
2021/04/15 06:47:06;;;;;;;22.98;16.08;;;10.80;84.30;;;;;;4998360;28;20057;-62
2021/04/15 06:50:01;;;;;;;22.13;15.18;;;10.90;84.70;;;;;;4997576;28;20408;-62
2021/04/15 06:52:45;;;;;;;20.58;15.77;;;11.10;84.70;;;;;;5003802;28;20033;-62
2021/04/15 06:55:19;;;;;;;19.23;14.50;;;11.20;84.30;;;;;;5004086;28;20661;-62
2021/04/15 06:57:48;;;;;;;17.35;13.20;;;11.30;84.10;;;;;;4999201;28;20069;-63
2021/04/15 07:00:53;;;;;;;19.55;13.88;;;11.50;83.70;;;;;;4998924;28;20028;-62
2021/04/15 07:03:56;;;;;;;17.70;13.43;;;11.70;83.10;;;;;;4990002;28;20052;-63
2021/04/15 07:06:49;;;;;;;21.27;13.60;;;11.80;82.50;;;;;;4981432;28;20054;-62
2021/04/15 07:09:39;;;;;;;17.83;13.95;;;11.90;81.70;;;;;;4981211;28;20043;-63
2021/04/15 07:12:29;;;;;;;18.50;14.93;;;11.90;81.20;;;;;;4977598;28;20049;-61
2021/04/15 07:15:45;;;;;;;18.63;14.45;;;11.90;81.00;;;;;;4978812;28;20394;-62
2021/04/15 07:18:32;;;;;;;20.40;14.45;;;11.90;81.30;;;;;;4950193;28;20133;-63
2021/04/15 07:21:35;;;;;;;18.63;14.25;;;11.90;81.40;;;;;;4980296;28;20062;-61
2021/04/15 07:24:19;;;;;;;20.38;14.70;;;11.90;81.90;;;;;;4982634;28;20104;-61
2021/04/15 07:27:22;;;;;;;17.85;13.40;;;12.00;82.00;;;;;;4979672;28;20030;-60
2021/04/15 07:30:05;;;;;;;19.05;14.88;;;12.20;81.90;;;;;;4977075;28;20034;-61
2021/04/15 07:32:33;;;;;;;20.85;15.27;;;12.30;81.30;;;;;;4981187;28;20112;-61
2021/04/15 07:35:31;;;;;;;22.13;16.30;;;12.30;80.70;;;;;;4979462;28;20582;-64
2021/04/15 07:38:25;;;;;;;18.90;15.07;;;12.30;80.20;;;;;;4982321;28;20041;-61
2021/04/15 07:41:19;;;;;;;19.88;15.48;;;12.20;80.50;;;;;;4973119;28;20133;-58
2021/04/15 07:44:03;;;;;;;19.10;14.63;;;12.20;80.80;;;;;;4971479;28;20042;-64
2021/04/15 07:46:34;;;;;;;20.70;14.35;;;12.30;80.90;;;;;;4975784;28;20045;-60
2021/04/15 07:49:10;;;;;;;19.48;14.40;;;12.40;80.80;;;;;;4966770;28;20738;-61
2021/04/15 07:51:51;;;;;;;22.58;16.50;;;12.40;80.60;;;;;;4979827;28;20089;-62
2021/04/15 07:54:23;;;;;;;25.20;15.13;;;12.50;80.40;;;;;;4974683;28;20049;-63
2021/04/15 07:57:15;;;;;;;18.15;14.38;;;12.60;80.30;;;;;;4975903;28;20037;-63
2021/04/15 07:59:59;;;;;;;19.20;12.93;;;12.70;80.20;;;;;;4979293;28;20035;-62
2021/04/15 08:02:46;;;;;;;18.50;14.25;;;12.80;80.20;;;;;;4982353;28;20085;-63
2021/04/15 08:06:04;;;;;;;17.00;13.07;;;12.90;80.70;;;;;;4991189;28;20061;-62
2021/04/15 08:09:13;;;;;;;16.92;13.07;;;13.00;79.80;;;;;;4993310;28;20073;-62
2021/04/15 08:12:01;;;;;;;15.27;11.35;;;13.20;80.10;;;;;;4996510;28;20022;-59
2021/04/15 08:15:12;;;;;;;14.32;10.95;;;13.40;79.90;;;;;;4997379;28;20088;-61
2021/04/15 08:18:06;;;;;;;12.45;9.63;;;13.60;78.80;;;;;;4995458;28;20065;-62
2021/04/15 08:21:04;;;;;;;14.10;10.57;;;13.70;78.20;;;;;;4991359;28;20089;-63
2021/04/15 08:23:46;;;;;;;12.25;10.13;;;13.70;76.70;;;;;;4995021;28;20061;-62
2021/04/15 08:26:34;;;;;;;15.93;11.55;;;13.60;76.90;;;;;;4992839;28;20034;-66
2021/04/15 08:29:18;;;;;;;14.38;11.32;;;13.60;77.00;;;;;;4999507;28;20041;-65
2021/04/15 08:32:18;;;;;;;16.10;12.45;;;13.50;77.20;;;;;;4997456;28;20507;-62
2021/04/15 08:34:51;;;;;;;12.25;9.80;;;13.50;77.10;;;;;;4999273;28;20033;-61
2021/04/15 08:37:58;;;;;;;14.07;10.30;;;13.50;77.40;;;;;;4993663;28;20446;-62
2021/04/15 08:40:27;;;;;;;13.63;10.75;;;13.50;77.30;;;;;;4998355;28;20026;-58
2021/04/15 08:42:59;;;;;;;15.93;12.13;;;13.60;77.30;;;;;;4992118;28;20030;-61
2021/04/15 08:45:53;;;;;;;15.18;11.35;;;13.60;77.30;;;;;;4989963;28;20084;-60
2021/04/15 08:48:37;;;;;;;14.35;10.43;;;13.60;76.50;;;;;;4981321;28;20497;-64
2021/04/15 08:51:40;;;;;;;18.35;10.60;;;13.60;76.10;;;;;;5000342;28;20037;-64
2021/04/15 08:54:19;;;;;;;15.30;9.50;;;13.50;76.00;;;;;;4991352;28;20036;-62
2021/04/15 08:56:58;;;;;;;13.48;10.00;;;13.50;75.00;;;;;;4998531;28;20114;-60
2021/04/15 08:59:53;;;;;;;13.45;10.40;;;13.40;74.50;;;;;;4991081;28;20754;-62
2021/04/15 09:02:24;;;;;;;11.98;9.38;;;13.20;74.50;;;;;;4998350;28;20034;-59
2021/04/15 09:05:22;;;;;;;10.38;8.10;;;13.10;75.10;;;;;;4999727;28;20037;-59
2021/04/15 09:08:16;;;;;;;9.77;7.72;;;13.00;75.00;;;;;;4998435;28;20108;-63
2021/04/15 09:11:04;;;;;;;10.63;7.85;;;13.00;74.20;;;;;;5002065;28;20022;-59
2021/04/15 09:14:05;;;;;;;9.10;6.97;;;13.00;74.70;;;;;;5001135;28;20026;-62
2021/04/15 09:16:38;;;;;;;10.00;6.97;;;13.00;74.80;;;;;;5002403;28;20081;-64
2021/04/15 09:19:12;;;;;;;9.27;6.85;;;13.00;75.00;;;;;;4996398;28;20045;-62
2021/04/15 09:22:13;;;;;;;10.80;7.72;;;13.00;75.10;;;;;;4998359;28;20052;-63
2021/04/15 09:24:58;;;;;;;12.27;9.68;;;13.00;74.20;;;;;;4995477;28;20034;-62
2021/04/15 09:27:45;;;;;;;13.95;11.13;;;13.00;74.40;;;;;;4995437;28;20112;-60
2021/04/15 09:30:42;;;;;;;14.55;10.80;;;13.00;74.10;;;;;;4992617;28;20038;-61
2021/04/15 09:33:29;;;;;;;11.93;9.40;;;13.00;74.10;;;;;;4993980;28;20034;-59
2021/04/15 09:36:16;;;;;;;11.35;8.50;;;13.10;74.50;;;;;;5003913;28;20084;-62
2021/04/15 09:39:18;;;;;;;12.27;8.93;;;13.10;74.30;;;;;;4995079;28;20654;-59
2021/04/15 09:42:02;;;;;;;13.98;9.13;;;13.10;74.70;;;;;;4989074;28;20045;-61
2021/04/15 09:44:46;;;;;;;15.00;11.18;;;13.00;74.50;;;;;;4996961;28;20030;-61
2021/04/15 09:47:49;;;;;;;13.23;10.65;;;12.90;74.10;;;;;;4998083;28;20087;-62
2021/04/15 09:50:21;;;;;;;14.68;11.32;;;12.80;74.10;;;;;;5001561;28;20057;-63
2021/04/15 09:53:05;;;;;;;14.05;11.38;;;12.70;74.70;;;;;;4999656;28;20493;-62
2021/04/15 09:56:04;;;;;;;18.58;12.13;;;12.60;74.90;;;;;;4995821;28;20088;-64
2021/04/15 09:58:40;;;;;;;20.25;14.10;;;12.60;74.90;;;;;;4994616;28;20045;-61
2021/04/15 10:01:29;;;;;;;17.05;13.02;;;12.50;74.70;;;;;;5003022;28;20037;-63
2021/04/15 10:04:13;;;;;;;16.75;11.70;;;12.50;74.90;;;;;;5001238;28;20038;-60
2021/04/15 10:06:53;;;;;;;21.63;13.30;;;12.40;75.30;;;;;;5001067;28;20049;-59
2021/04/15 10:09:26;;;;;;;16.92;10.07;;;12.40;75.40;;;;;;4990645;28;20198;-62
2021/04/15 10:12:29;;;;;;;14.27;10.38;;;12.40;75.60;;;;;;4989374;28;20044;-65
2021/04/15 10:15:15;;;;;;;13.50;9.77;;;12.30;75.60;;;;;;4992943;28;20022;-65
2021/04/15 10:17:57;;;;;;;12.00;9.05;;;12.30;76.00;;;;;;4998284;28;20065;-64
2021/04/15 10:21:03;;;;;;;13.32;10.45;;;12.40;76.20;;;;;;4993109;28;20045;-64
2021/04/15 10:24:06;;;;;;;14.07;10.35;;;12.50;76.00;;;;;;4974428;28;20049;-65
2021/04/15 10:27:03;;;;;;;12.55;9.98;;;12.50;75.80;;;;;;4994522;28;20080;-64
2021/04/15 10:30:05;;;;;;;14.05;9.35;;;12.50;76.00;;;;;;4998848;28;20381;-64
2021/04/15 10:32:46;;;;;;;13.23;9.70;;;12.50;76.20;;;;;;4993066;28;20041;-66
2021/04/15 10:35:33;;;;;;;11.65;9.32;;;12.60;76.00;;;;;;4995182;28;20025;-64
2021/04/15 10:38:17;;;;;;;13.23;8.93;;;12.70;75.80;;;;;;4999085;28;20029;-64
2021/04/15 10:41:02;;;;;;;12.57;9.15;;;12.70;75.80;;;;;;5004485;28;20038;-66
2021/04/15 10:43:55;;;;;;;12.32;8.93;;;12.80;75.50;;;;;;4999156;28;20125;-64
2021/04/15 10:47:11;;;;;;;10.10;8.00;;;12.90;75.40;;;;;;4987273;28;20029;-66
2021/04/15 10:50:04;;;;;;;12.15;8.43;;;12.90;74.60;;;;;;4947032;28;20118;-65
2021/04/15 10:53:13;;;;;;;13.50;9.43;;;12.90;74.50;;;;;;4984179;28;20030;-67
2021/04/15 10:55:43;;;;;;;12.10;9.82;;;12.90;74.40;;;;;;4980493;28;20040;-66
2021/04/15 10:58:40;;;;;;;12.65;9.95;;;12.80;74.60;;;;;;4988379;28;20049;-66
2021/04/15 11:01:24;;;;;;;13.57;10.15;;;12.80;75.00;;;;;;4996012;28;20500;-65
2021/04/15 11:03:51;;;;;;;14.18;10.65;;;12.70;75.30;;;;;;4997619;28;20041;-65
2021/04/15 11:06:35;;;;;;;12.52;9.43;;;12.70;75.30;;;;;;4998216;28;20072;-64
2021/04/15 11:09:19;;;;;;;15.90;10.50;;;12.60;75.70;;;;;;4998162;28;20049;-65
2021/04/15 11:12:13;;;;;;;13.25;10.82;;;12.60;75.90;;;;;;5004177;28;20026;-65
2021/04/15 11:14:55;;;;;;;11.68;8.85;;;12.60;76.10;;;;;;4982825;28;20038;-65
2021/04/15 11:17:41;;;;;;;11.63;9.20;;;12.60;75.80;;;;;;5000361;28;20670;-65
2021/04/15 11:20:19;;;;;;;15.30;10.82;;;12.60;75.70;;;;;;4996192;28;20021;-65
2021/04/15 11:22:56;;;;;;;14.52;9.80;;;12.60;75.80;;;;;;4996046;28;20030;-64
2021/04/15 11:25:28;;;;;;;14.20;9.48;;;12.50;76.10;;;;;;5001951;28;20033;-65
2021/04/15 11:27:55;;;;;;;12.05;8.38;;;12.50;76.20;;;;;;4998520;28;22520;-65
2021/04/15 11:30:30;;;;;;;14.57;9.95;;;12.40;76.10;;;;;;5001419;28;20013;-65
2021/04/15 11:32:56;;;;;;;15.43;10.05;;;12.40;76.00;;;;;;5003485;28;20043;-65
2021/04/15 11:35:23;;;;;;;13.48;10.27;;;12.30;76.50;;;;;;4998847;28;23950;-65
2021/04/15 11:38:04;;;;;;;14.80;10.38;;;12.30;76.90;;;;;;4998203;28;20034;-65
2021/04/15 11:40:32;;;;;;;12.77;10.35;;;12.30;77.20;;;;;;5001198;28;20056;-65
2021/04/15 11:43:01;;;;;;;16.48;11.45;;;12.20;77.50;;;;;;5002894;28;20121;-65
2021/04/15 11:45:34;;;;;;;16.52;11.18;;;12.30;77.50;;;;;;4998359;28;20052;-65
2021/04/15 11:48:33;;;;;;;11.60;9.02;;;12.30;77.90;;;;;;4998237;28;20592;-65
2021/04/15 11:51:18;;;;;;;12.52;9.15;;;12.30;77.10;;;;;;4951599;28;22078;-65
2021/04/15 11:53:50;;;;;;;13.73;9.88;;;12.30;77.20;;;;;;4993252;28;20528;-65
2021/04/15 11:56:19;;;;;;;;;;;12.30;77.00;;;;;;5001667;28;20022;-65
2021/04/15 11:58:44;;;;;;;10.77;8.30;;;12.30;77.00;;;;;;5003470;28;19996;-65
2021/04/15 12:01:11;;;;;;;11.60;9.10;;;12.30;77.20;;;;;;5000930;28;20176;-65
2021/04/15 12:03:53;;;;;;;10.98;8.82;;;12.30;77.10;;;;;;4997284;28;20060;-65
2021/04/15 12:06:20;;;;;;;12.73;9.48;;;12.40;77.10;;;;;;4987438;28;20080;-64
2021/04/15 12:08:47;;;;;;;12.27;9.75;;;12.40;77.10;;;;;;4975839;28;20077;-64
2021/04/15 12:11:16;;;;;;;12.55;9.95;;;12.50;76.70;;;;;;4988308;28;20039;-63
2021/04/15 12:13:48;;;;;;;12.05;9.60;;;12.50;76.50;;;;;;4990514;28;20018;-64
2021/04/15 12:16:36;;;;;;;12.07;9.68;;;12.50;77.20;;;;;;4992482;28;20034;-63
2021/04/15 12:19:23;;;;;;;13.07;9.48;;;12.60;76.80;;;;;;4989461;28;20037;-64
2021/04/15 12:22:11;;;;;;;13.95;9.05;;;12.60;76.60;;;;;;4994826;28;20622;-62
2021/04/15 12:24:45;;;;;;;11.63;9.55;;;12.50;76.50;;;;;;4996362;28;20113;-62
2021/04/15 12:27:30;;;;;;;12.80;9.63;;;12.50;77.00;;;;;;4987939;28;20639;-65
2021/04/15 12:30:08;;;;;;;13.68;10.35;;;12.60;77.20;;;;;;4986763;28;20017;-66
2021/04/15 12:32:49;;;;;;;14.20;10.23;;;12.60;77.20;;;;;;4995304;28;20026;-62
2021/04/15 12:35:56;;;;;;;12.98;9.20;;;12.60;76.90;;;;;;4994075;28;20053;-66
2021/04/15 12:38:36;;;;;;;14.43;9.65;;;12.60;76.90;;;;;;5000207;28;20477;-63
2021/04/15 12:41:05;;;;;;;11.82;9.43;;;12.60;76.90;;;;;;4998752;28;20041;-62
2021/04/15 12:43:36;;;;;;;13.77;9.90;;;12.60;77.00;;;;;;4994727;28;20038;-62
2021/04/15 12:46:18;;;;;;;14.75;10.45;;;12.60;77.20;;;;;;4995850;28;20057;-65
2021/04/15 12:48:59;;;;;;;11.88;9.32;;;12.50;77.10;;;;;;4990075;28;20671;-64
2021/04/15 12:51:29;;;;;;;15.77;10.68;;;12.50;77.60;;;;;;4997979;28;20568;-63
2021/04/15 12:53:58;;;;;;;16.55;11.45;;;12.50;77.70;;;;;;4990600;28;20034;-63
2021/04/15 12:56:39;;;;;;;15.75;11.70;;;12.50;77.70;;;;;;4996565;28;20040;-64
2021/04/15 12:59:06;;;;;;;18.38;12.15;;;12.50;78.00;;;;;;4998559;28;20121;-64
2021/04/15 13:01:33;;;;;;;17.80;11.80;;;12.40;78.10;;;;;;4986886;28;21829;-62
2021/04/15 13:04:17;;;;;;;18.98;12.68;;;12.40;78.20;;;;;;4968935;28;639975;-64
2021/04/15 13:07:11;;;;;;;21.10;13.55;;;12.40;78.60;;;;;;4995261;28;20593;-65
2021/04/15 13:09:45;;;;;;;23.73;14.93;;;12.30;78.50;;;;;;4993307;28;20076;-63
2021/04/15 13:12:29;;;;;;;24.52;16.48;;;12.20;78.80;;;;;;4994930;28;20116;-64
2021/04/15 13:14:58;;;;;;;26.10;17.73;;;12.10;79.10;;;;;;4996980;28;20084;-65
2021/04/15 13:17:36;;;;;;;25.02;16.20;;;12.00;79.40;;;;;;4988624;28;20038;-62
2021/04/15 13:20:19;;;;;;;26.45;16.90;;;11.90;79.60;;;;;;4993318;28;20030;-62
2021/04/15 13:22:49;;;;;;;25.25;17.42;;;11.90;80.10;;;;;;4996169;28;20033;-62
2021/04/15 13:25:22;;;;;;;25.48;17.40;;;11.90;80.40;;;;;;4988140;28;20042;-62
2021/04/15 13:27:57;;;;;;;23.50;16.35;;;11.80;80.40;;;;;;4991018;28;20144;-62
2021/04/15 13:30:54;;;;;;;25.35;17.13;;;11.80;80.60;;;;;;4990858;28;20033;-63
2021/04/15 13:33:22;;;;;;;23.35;15.10;;;11.80;80.50;;;;;;4988742;28;21141;-63
2021/04/15 13:36:00;;;;;;;24.00;15.93;;;11.80;80.60;;;;;;4983635;28;20030;-61
2021/04/15 13:38:32;;;;;;;28.10;17.38;;;11.90;80.60;;;;;;4985453;28;20029;-63